Skip Navigation Links
NOAA logo - Click to go to the NOAA homepage
NOAA's National Weather Service
Alaska Aviation Weather Unit
  NWS logo - Click to go to the NWS homepage
Left Navbar Graphic     19 AKDT = 03 GMT

   
NOAA is celebrating 200 years of science, service, and stewardship. Visit the NOAA 200th celebration Web site to learn more.
USA.gov is the U.S. Government's official Web portal to all Federal, state and local government Web resources and services.
Facebook
NWS on Facebook

Important Change Regarding the AAWU Web Presence

 

Over the last several months, the AAWU has been working to navigate its webpages to a nationally supported server. Security, as well as other needs, have necessitated the change.  In the process, we have made an effort to enhance the functionality of our website, as well as some of our products. As of June 20, 2017, aawu.arh.noaa.gov will be discontinued. The new AAWU web address is weather.gov/aawu. It is now live and will run in-parallel with the old site until it is discontinued. Please send any feedback or questions regarding the new webpages to nws.ar.aawu.webauthors@noaa.gov.  Thank you for your patience during this time of transition.
AAWU Home :: Display TAF Add Bookmark
TAF PATA 242339Z 2500/2524 14007KT P6SM -SHRA SCT035 BKN050 OVC100
     FM250600 20007KT 6SM -RA BR BKN025 OVC050
     FM251200 20007KT 6SM -RASN BR BKN025 OVC050
     FM251800 15006KT P6SM VCSH SCT025 BKN050 BKN100=
METAR PATA 242152Z 16003KT 10SM OVC090 13/04 A2970 RMK AO2 SLP061
     T01280039=

METAR PATA 242252Z 10007KT 10SM SCT070 OVC080 14/03 A2968 RMK AO2 SLP052
     T01390028=

METAR PATA 242352Z 22006KT 10SM SCT070 OVC080 12/03 A2967 RMK AO2
     RAB27E37 SLP051 P0000 60000 T01220033 10144 20094 56017=

METAR PATA 250052Z 00000KT 10SM SCT080 OVC090 13/04 A2966 RMK AO2 SLP046
     T01280039=

METAR PATA 250152Z 20006KT 10SM -RA FEW045 BKN055 OVC070 11/07 A2967 RMK
     AO2 RAB21 SLP049 P0001 T01060072=

METAR PATA 250252Z 17007KT 10SM -RA OVC049 10/07 A2967 RMK AO2 RAE01B25
     SLP050 P0001 60002 T01000067 55001=


NOAA's National Weather Service
Alaska Aviation Weather Unit
6930 Sand Lake Road
Anchorage, AK 99502-1845
Disclaimer
Credits
Glossary
Privacy Policy
About Us
Career Opportunities
Contact AAWU Internet Services Site last modified: April, 17th 2012